Time;durP1;ratioP1;P1;durP2;ratioP2;P2;SDS_P1;SDS_P2;PMS_P1;PMS_P2;Temp;Humidity;BMP_temperature;BMP_pressure;BME280_temperature;BME280_humidity;BME280_pressure;Samples;Min_cycle;Max_cycle;Signal;HPM_P1;HPM_P2
2023/08/19 00:00:13;;;;;;;54.40;50.15;;;19.20;94.10;;;;;;5092612;28;20173;-88
2023/08/19 00:02:39;;;;;;;55.15;50.30;;;19.20;94.10;;;;;;5092661;28;20213;-88
2023/08/19 00:05:05;;;;;;;55.58;50.80;;;19.30;94.10;;;;;;5093650;28;20206;-88
2023/08/19 00:07:31;;;;;;;54.78;50.63;;;19.30;94.10;;;;;;5092400;28;20607;-88
2023/08/19 00:09:56;;;;;;;54.75;50.03;;;19.30;94.10;;;;;;5093690;28;20184;-88
2023/08/19 00:12:22;;;;;;;56.45;51.47;;;19.30;94.20;;;;;;5092439;28;20235;-88
2023/08/19 00:14:49;;;;;;;54.22;49.63;;;19.20;94.10;;;;;;5092348;28;20228;-88
2023/08/19 00:17:16;;;;;;;54.25;49.90;;;19.20;94.10;;;;;;5093118;28;20187;-87
2023/08/19 00:19:41;;;;;;;53.67;48.67;;;19.20;94.10;;;;;;5093513;28;20254;-88
2023/08/19 00:22:07;;;;;;;56.88;52.28;;;19.20;94.10;;;;;;5093684;28;20252;-88
2023/08/19 00:24:32;;;;;;;55.13;51.00;;;19.20;94.20;;;;;;5093646;28;20194;-88
2023/08/19 00:27:00;;;;;;;54.83;50.50;;;19.20;94.20;;;;;;5093383;28;20177;-88
2023/08/19 00:29:26;;;;;;;56.05;51.42;;;19.30;94.20;;;;;;5093462;28;20170;-87
2023/08/19 00:31:51;;;;;;;55.88;51.58;;;19.20;94.20;;;;;;5093586;28;20185;-88
2023/08/19 00:34:17;;;;;;;56.28;51.95;;;19.20;94.20;;;;;;5093393;28;20179;-88
2023/08/19 00:36:42;;;;;;;56.63;51.53;;;19.30;94.20;;;;;;5093565;28;20287;-87
2023/08/19 00:39:09;;;;;;;55.42;50.75;;;19.20;94.20;;;;;;5091435;28;20234;-88
2023/08/19 00:41:34;;;;;;;54.97;50.72;;;19.20;94.30;;;;;;5092134;28;20192;-87
2023/08/19 00:44:00;;;;;;;55.97;50.97;;;19.20;94.30;;;;;;5093130;28;20709;-87
2023/08/19 00:46:26;;;;;;;54.30;49.83;;;19.20;94.30;;;;;;5092032;28;20642;-87
2023/08/19 00:48:51;;;;;;;55.53;51.13;;;19.30;94.40;;;;;;5091995;28;20194;-88
2023/08/19 00:51:17;;;;;;;54.00;49.60;;;19.30;94.40;;;;;;5092025;28;20179;-87
2023/08/19 00:53:44;;;;;;;55.55;50.90;;;19.30;94.50;;;;;;5093722;28;20170;-87
2023/08/19 00:56:10;;;;;;;54.55;50.63;;;19.40;94.50;;;;;;5091711;28;20226;-88
2023/08/19 00:58:36;;;;;;;53.80;49.70;;;19.40;94.50;;;;;;5093323;28;20231;-87
2023/08/19 01:01:01;;;;;;;54.08;49.55;;;19.40;94.50;;;;;;5091999;28;20167;-87
2023/08/19 01:03:27;;;;;;;55.72;51.03;;;19.40;94.50;;;;;;5093087;28;20179;-88
2023/08/19 01:06:26;;;;;;;56.45;51.70;;;19.40;94.50;;;;;;5092588;28;20195;-88
2023/08/19 01:09:00;;;;;;;54.90;50.90;;;19.40;94.50;;;;;;5092264;28;20204;-87
2023/08/19 01:11:32;;;;;;;56.03;51.85;;;19.50;94.50;;;;;;5093048;28;20158;-88
2023/08/19 01:14:44;;;;;;;54.15;50.17;;;19.40;94.50;;;;;;5091830;28;20182;-88
2023/08/19 01:17:13;;;;;;;55.45;51.33;;;19.50;94.50;;;;;;5087579;28;20182;-88
2023/08/19 01:19:41;;;;;;;57.00;52.50;;;19.50;94.50;;;;;;5093735;28;20267;-87
2023/08/19 01:22:08;;;;;;;57.90;52.95;;;19.50;94.50;;;;;;5096757;28;20238;-88
2023/08/19 01:24:40;;;;;;;56.35;51.85;;;19.50;94.50;;;;;;5095512;28;20198;-88
2023/08/19 01:27:21;;;;;;;56.05;51.70;;;19.50;94.50;;;;;;5096718;28;20516;-88
2023/08/19 01:29:47;;;;;;;57.78;52.85;;;19.50;94.40;;;;;;5095462;28;20257;-88
2023/08/19 01:32:14;;;;;;;55.88;51.58;;;19.50;94.50;;;;;;5095540;28;20214;-88
2023/08/19 01:34:39;;;;;;;57.75;53.38;;;19.50;94.40;;;;;;5096510;28;20660;-88
2023/08/19 01:37:11;;;;;;;58.15;53.63;;;19.50;94.50;;;;;;5096514;28;20206;-88
2023/08/19 01:39:38;;;;;;;59.63;54.53;;;19.40;94.50;;;;;;5096474;28;20244;-88
2023/08/19 01:42:04;;;;;;;56.33;52.07;;;19.40;94.40;;;;;;5095272;28;20183;-88
2023/08/19 01:44:31;;;;;;;58.35;53.67;;;19.40;94.50;;;;;;5095083;28;20286;-88
2023/08/19 01:46:56;;;;;;;60.90;56.10;;;19.40;94.50;;;;;;5096324;28;20182;-88
2023/08/19 01:49:22;;;;;;;60.90;56.25;;;19.40;94.40;;;;;;5095025;28;20179;-87
2023/08/19 01:51:48;;;;;;;61.85;57.35;;;19.40;94.50;;;;;;5096217;28;20595;-88
2023/08/19 01:54:14;;;;;;;63.78;58.70;;;19.40;94.50;;;;;;5096121;28;20217;-88
2023/08/19 01:56:40;;;;;;;64.05;59.22;;;19.30;94.50;;;;;;5096140;28;20182;-88
2023/08/19 01:59:05;;;;;;;63.05;58.00;;;19.30;94.50;;;;;;5096370;28;20198;-87
2023/08/19 02:01:31;;;;;;;63.92;58.40;;;19.40;94.50;;;;;;5094883;28;20178;-87
2023/08/19 02:03:56;;;;;;;62.25;57.42;;;19.30;94.50;;;;;;5094823;28;20261;-88
2023/08/19 02:06:22;;;;;;;64.35;59.67;;;19.30;94.50;;;;;;5094647;28;20198;-88
2023/08/19 02:08:47;;;;;;;62.05;57.47;;;19.30;94.60;;;;;;5094672;28;20175;-88
2023/08/19 02:11:13;;;;;;;64.85;59.97;;;19.30;94.60;;;;;;5095473;28;20178;-88
2023/08/19 02:13:38;;;;;;;64.55;59.03;;;19.20;94.60;;;;;;5095890;28;20182;-88
2023/08/19 02:16:04;;;;;;;64.78;59.40;;;19.30;94.60;;;;;;5095723;28;20186;-88
2023/08/19 02:18:29;;;;;;;65.05;60.35;;;19.30;94.60;;;;;;5095613;28;20207;-88
2023/08/19 02:20:55;;;;;;;68.32;63.33;;;19.20;94.60;;;;;;5094460;28;20177;-87
2023/08/19 02:23:20;;;;;;;97.70;91.03;;;19.20;94.60;;;;;;5095626;28;20228;-88
2023/08/19 02:25:46;;;;;;;99.47;92.72;;;19.20;94.60;;;;;;5095588;28;20191;-88
2023/08/19 02:28:11;;;;;;;65.85;60.90;;;19.20;94.70;;;;;;5095539;28;20171;-88
2023/08/19 02:30:39;;;;;;;64.10;58.88;;;19.20;94.70;;;;;;5094506;28;20175;-88
2023/08/19 02:33:06;;;;;;;69.72;64.47;;;19.20;94.70;;;;;;5094201;28;20178;-88
2023/08/19 02:35:31;;;;;;;95.38;88.65;;;19.20;94.70;;;;;;5095409;28;20243;-88
2023/08/19 02:37:57;;;;;;;97.30;90.47;;;19.20;94.70;;;;;;5094487;28;20678;-88
2023/08/19 02:40:23;;;;;;;64.78;60.08;;;19.20;94.70;;;;;;5094108;28;20183;-88
2023/08/19 02:42:48;;;;;;;65.15;60.20;;;19.20;94.70;;;;;;5094156;28;20666;-88
2023/08/19 02:45:14;;;;;;;66.32;61.63;;;19.20;94.80;;;;;;5093945;28;20217;-88
2023/08/19 02:47:39;;;;;;;68.18;62.95;;;19.20;94.80;;;;;;5094233;28;20166;-87
2023/08/19 02:50:06;;;;;;;68.00;62.95;;;19.20;94.80;;;;;;5095475;28;20166;-88
2023/08/19 02:52:31;;;;;;;68.28;62.38;;;19.20;94.80;;;;;;5095061;28;20179;-88
2023/08/19 02:54:57;;;;;;;66.53;61.15;;;19.20;94.80;;;;;;5093652;28;20223;-88
2023/08/19 02:57:22;;;;;;;68.78;63.50;;;19.20;94.80;;;;;;5095003;28;20175;-88
2023/08/19 02:59:48;;;;;;;68.97;63.70;;;19.20;94.80;;;;;;5093636;28;20201;-88
2023/08/19 03:02:13;;;;;;;68.35;63.58;;;19.20;94.80;;;;;;5093863;28;20173;-88
2023/08/19 03:04:39;;;;;;;66.88;61.88;;;19.20;94.80;;;;;;5093501;28;20190;-87
2023/08/19 03:07:04;;;;;;;70.05;64.53;;;19.10;94.80;;;;;;5093539;28;20171;-88
2023/08/19 03:09:30;;;;;;;70.45;65.32;;;19.10;94.80;;;;;;5093479;28;20178;-87
2023/08/19 03:11:55;;;;;;;69.68;64.88;;;19.10;94.80;;;;;;5093493;28;20553;-88
2023/08/19 03:14:21;;;;;;;70.38;64.78;;;19.10;94.90;;;;;;5093395;28;20606;-88
2023/08/19 03:16:46;;;;;;;69.57;64.30;;;19.10;94.90;;;;;;5093371;28;20200;-88
2023/08/19 03:19:14;;;;;;;68.80;63.63;;;19.20;94.90;;;;;;5093371;28;20206;-88
2023/08/19 03:21:40;;;;;;;72.32;66.53;;;19.10;94.90;;;;;;5094529;28;20159;-88
2023/08/19 03:24:05;;;;;;;68.88;63.78;;;19.10;94.90;;;;;;5093467;28;20182;-88
2023/08/19 03:26:31;;;;;;;69.60;64.20;;;19.10;94.90;;;;;;5094359;28;20257;-88
2023/08/19 03:28:56;;;;;;;71.82;66.70;;;19.10;94.90;;;;;;5093017;28;20178;-88
2023/08/19 03:31:22;;;;;;;70.03;64.57;;;19.10;94.90;;;;;;5093081;28;20178;-88
2023/08/19 03:33:48;;;;;;;72.67;67.43;;;19.10;94.90;;;;;;5093904;28;20206;-88
2023/08/19 03:36:14;;;;;;;68.72;63.58;;;19.10;94.90;;;;;;5092935;28;20716;-88
2023/08/19 03:38:39;;;;;;;69.20;63.95;;;19.10;94.90;;;;;;5094168;28;20238;-88
2023/08/19 03:41:05;;;;;;;70.22;65.10;;;19.10;94.90;;;;;;5094251;28;20166;-87
2023/08/19 03:43:30;;;;;;;71.53;66.00;;;19.10;95.00;;;;;;5093611;28;20186;-88
2023/08/19 03:45:56;;;;;;;72.70;67.25;;;19.10;95.00;;;;;;5092730;28;20194;-88
2023/08/19 03:48:21;;;;;;;74.15;68.55;;;19.10;94.90;;;;;;5092747;28;20319;-88
2023/08/19 03:50:47;;;;;;;71.45;66.22;;;19.00;94.90;;;;;;5094195;28;20239;-88
2023/08/19 03:53:12;;;;;;;75.68;70.07;;;19.00;95.00;;;;;;5092650;28;20214;-88
2023/08/19 03:55:38;;;;;;;74.35;69.15;;;19.10;95.00;;;;;;5092829;28;20216;-88
2023/08/19 03:58:03;;;;;;;75.20;70.00;;;19.00;95.00;;;;;;5093732;28;20704;-88
2023/08/19 04:00:29;;;;;;;74.10;68.63;;;19.00;95.00;;;;;;5094373;28;20178;-88
2023/08/19 04:02:54;;;;;;;71.90;66.45;;;19.10;95.00;;;;;;5093768;28;20169;-88
2023/08/19 04:05:20;;;;;;;76.75;70.80;;;19.10;95.10;;;;;;5092450;28;20289;-88
2023/08/19 04:07:46;;;;;;;73.45;67.93;;;19.10;95.10;;;;;;5093702;28;20642;-88
2023/08/19 04:10:11;;;;;;;75.10;69.65;;;19.00;95.00;;;;;;5092465;28;20171;-87
2023/08/19 04:12:37;;;;;;;75.38;69.72;;;19.00;95.10;;;;;;5092408;28;20365;-88
2023/08/19 04:15:03;;;;;;;74.40;69.07;;;19.00;95.10;;;;;;5093513;28;20187;-88
2023/08/19 04:17:31;;;;;;;75.75;69.63;;;19.00;95.10;;;;;;5093474;28;20666;-88
2023/08/19 04:19:57;;;;;;;75.75;70.18;;;19.00;95.10;;;;;;5092208;28;20235;-88
2023/08/19 04:22:23;;;;;;;75.75;70.43;;;19.00;95.10;;;;;;5093464;28;20215;-88
2023/08/19 04:24:50;;;;;;;77.40;71.85;;;19.00;95.10;;;;;;5092115;28;20266;-88
2023/08/19 04:27:16;;;;;;;77.75;72.13;;;19.00;95.10;;;;;;5092169;28;20552;-88
2023/08/19 04:29:42;;;;;;;79.75;73.78;;;19.00;95.10;;;;;;5092132;28;20175;-87
2023/08/19 04:32:07;;;;;;;78.22;72.57;;;19.00;95.10;;;;;;5093361;28;20221;-87
2023/08/19 04:34:33;;;;;;;81.57;75.93;;;19.00;95.10;;;;;;5093243;28;20205;-87
2023/08/19 04:36:58;;;;;;;79.68;74.00;;;19.00;95.20;;;;;;5093544;28;20178;-88
2023/08/19 04:39:24;;;;;;;79.47;74.05;;;19.00;95.10;;;;;;5093136;28;20202;-88
2023/08/19 04:41:50;;;;;;;80.63;74.57;;;19.10;95.20;;;;;;5093509;28;20166;-87
2023/08/19 04:44:16;;;;;;;81.07;75.47;;;19.00;95.10;;;;;;5093161;28;20174;-87
2023/08/19 04:46:42;;;;;;;83.43;77.15;;;19.10;95.20;;;;;;5091852;28;20660;-87
2023/08/19 04:49:08;;;;;;;80.80;74.80;;;19.10;95.20;;;;;;5092030;28;20257;-87
2023/08/19 04:51:34;;;;;;;85.28;79.15;;;19.10;95.20;;;;;;5093239;28;20177;-87
2023/08/19 04:54:00;;;;;;;81.03;75.40;;;19.10;95.20;;;;;;5092716;28;20182;-87
2023/08/19 04:56:25;;;;;;;83.60;77.80;;;19.20;95.20;;;;;;5097358;28;20197;-88
2023/08/19 04:58:51;;;;;;;81.68;75.15;;;19.20;95.20;;;;;;5097448;28;20255;-88
2023/08/19 05:01:17;;;;;;;74.63;68.60;;;19.20;95.20;;;;;;5097433;28;20170;-87
2023/08/19 05:03:42;;;;;;;79.45;73.88;;;19.30;95.20;;;;;;5095864;28;20175;-87
2023/08/19 05:06:08;;;;;;;80.78;75.00;;;19.30;95.20;;;;;;5096148;28;20186;-87
2023/08/19 05:08:33;;;;;;;77.78;72.30;;;19.30;95.20;;;;;;5097158;28;20174;-87
2023/08/19 05:10:59;;;;;;;79.50;73.65;;;19.40;95.20;;;;;;5096056;28;20177;-86
2023/08/19 05:13:24;;;;;;;82.20;76.70;;;19.40;95.20;;;;;;5096091;28;20256;-87
2023/08/19 05:15:50;;;;;;;81.53;75.70;;;19.40;95.20;;;;;;5096014;28;20301;-87
2023/08/19 05:18:15;;;;;;;82.82;76.55;;;19.50;95.20;;;;;;5095596;28;20281;-87
2023/08/19 05:20:41;;;;;;;82.22;76.65;;;19.60;95.20;;;;;;5096859;28;20672;-88
2023/08/19 05:23:07;;;;;;;81.75;76.00;;;19.60;95.20;;;;;;5096920;28;20163;-89
2023/08/19 05:25:32;;;;;;;82.80;76.63;;;19.70;95.10;;;;;;5096806;28;20681;-89
2023/08/19 05:27:58;;;;;;;77.45;71.88;;;19.70;95.10;;;;;;5096765;28;20178;-89
2023/08/19 05:30:23;;;;;;;78.78;73.18;;;19.80;95.10;;;;;;5095508;28;20213;-89
2023/08/19 05:32:50;;;;;;;76.60;71.18;;;19.90;95.10;;;;;;5097183;28;20178;-89
2023/08/19 05:35:16;;;;;;;79.60;74.15;;;19.90;95.00;;;;;;5095282;28;20581;-89
2023/08/19 05:37:42;;;;;;;78.60;72.90;;;20.00;95.00;;;;;;5095154;28;20179;-89
2023/08/19 05:40:08;;;;;;;77.32;71.65;;;20.00;94.90;;;;;;5095345;28;20658;-89
2023/08/19 05:42:33;;;;;;;109.38;102.22;;;20.10;94.80;;;;;;5096448;28;20171;-89
2023/08/19 05:44:59;;;;;;;110.65;102.97;;;20.10;94.70;;;;;;5096355;28;20214;-89
2023/08/19 05:47:25;;;;;;;77.30;71.75;;;20.20;94.70;;;;;;5095105;28;20170;-89
2023/08/19 05:49:50;;;;;;;71.32;66.53;;;20.20;94.60;;;;;;5096552;28;20543;-89
2023/08/19 05:52:16;;;;;;;71.78;66.80;;;20.30;94.50;;;;;;5094970;28;20680;-89
2023/08/19 05:54:42;;;;;;;98.63;92.00;;;20.40;94.50;;;;;;5096025;28;20209;-89
2023/08/19 05:57:07;;;;;;;101.15;94.53;;;20.40;94.30;;;;;;5096301;28;20155;-89
2023/08/19 05:59:33;;;;;;;68.40;63.63;;;20.40;94.20;;;;;;5094921;28;20209;-89
2023/08/19 06:01:59;;;;;;;65.90;61.13;;;20.50;94.20;;;;;;5094915;28;20175;-89
2023/08/19 06:04:25;;;;;;;64.13;59.25;;;20.60;94.00;;;;;;5095998;28;20217;-89
2023/08/19 06:06:51;;;;;;;67.45;62.72;;;20.60;93.90;;;;;;5094851;28;20261;-89
2023/08/19 06:09:17;;;;;;;65.47;60.30;;;20.70;93.70;;;;;;5094772;28;20183;-89
2023/08/19 06:11:50;;;;;;;64.97;60.13;;;20.70;93.60;;;;;;5094813;28;20182;-89
2023/08/19 06:14:16;;;;;;;67.18;62.50;;;20.70;93.50;;;;;;5095915;28;20681;-89
2023/08/19 06:16:42;;;;;;;63.55;58.88;;;20.80;93.40;;;;;;5094837;28;20208;-89
2023/08/19 06:19:08;;;;;;;61.17;56.90;;;20.80;93.20;;;;;;5095670;28;20220;-90
2023/08/19 06:21:34;;;;;;;60.77;56.30;;;20.90;93.10;;;;;;5095773;28;20270;-90
2023/08/19 06:23:59;;;;;;;58.40;54.35;;;21.00;92.90;;;;;;5094659;28;20174;-89
2023/08/19 06:26:25;;;;;;;60.00;55.85;;;21.00;92.80;;;;;;5094731;28;20167;-89
2023/08/19 06:28:51;;;;;;;60.75;56.20;;;21.10;92.70;;;;;;5094302;28;20182;-90
2023/08/19 06:31:18;;;;;;;59.20;54.97;;;21.20;92.70;;;;;;5094285;28;20181;-90
2023/08/19 06:33:44;;;;;;;61.90;57.45;;;21.20;92.40;;;;;;5095412;28;20167;-90
2023/08/19 06:36:11;;;;;;;59.88;55.35;;;21.20;92.30;;;;;;5094424;28;20741;-89
2023/08/19 06:38:41;;;;;;;84.18;78.55;;;21.30;92.20;;;;;;5095276;28;20229;-89
2023/08/19 06:41:11;;;;;;;83.22;77.50;;;21.40;92.10;;;;;;5094022;28;20167;-90
2023/08/19 06:43:38;;;;;;;57.40;53.38;;;21.50;91.90;;;;;;5094020;28;20540;-89
2023/08/19 06:46:06;;;;;;;58.85;54.78;;;21.60;91.70;;;;;;5095131;28;20186;-90
2023/08/19 06:48:32;;;;;;;56.10;52.20;;;21.70;91.60;;;;;;5093821;28;20555;-89
2023/08/19 06:51:04;;;;;;;56.80;52.38;;;21.70;91.50;;;;;;5093815;28;20175;-89
2023/08/19 06:53:31;;;;;;;56.53;52.63;;;21.80;91.20;;;;;;5094117;28;20178;-89
2023/08/19 06:56:07;;;;;;;57.22;52.60;;;21.90;91.00;;;;;;5095345;28;20202;-90
2023/08/19 06:58:37;;;;;;;54.72;50.85;;;22.00;91.10;;;;;;5094304;28;20225;-89
2023/08/19 07:01:12;;;;;;;50.50;46.70;;;22.10;90.90;;;;;;5094368;28;20190;-90
2023/08/19 07:03:38;;;;;;;49.35;45.47;;;22.20;90.70;;;;;;5093782;28;20159;-90
2023/08/19 07:06:04;;;;;;;49.05;45.03;;;22.20;90.40;;;;;;5093704;28;20195;-90
2023/08/19 07:08:33;;;;;;;49.97;46.35;;;22.30;90.00;;;;;;5094795;28;20227;-89
2023/08/19 07:11:00;;;;;;;48.40;44.75;;;22.30;89.70;;;;;;5094054;28;20182;-89
2023/08/19 07:13:27;;;;;;;49.33;45.25;;;22.40;89.50;;;;;;5093563;28;20854;-89
2023/08/19 07:16:02;;;;;;;46.42;42.83;;;22.50;89.50;;;;;;5093334;28;20327;-88
2023/08/19 07:18:33;;;;;;;46.45;42.90;;;22.60;89.00;;;;;;5092867;28;20276;-89
2023/08/19 07:21:00;;;;;;;42.38;39.13;;;22.70;89.10;;;;;;5093374;28;20654;-89
2023/08/19 07:23:27;;;;;;;43.15;40.03;;;22.80;88.50;;;;;;5094507;28;20171;-90
2023/08/19 07:25:53;;;;;;;42.20;38.90;;;23.00;88.60;;;;;;5093174;28;20197;-90
2023/08/19 07:28:24;;;;;;;44.70;41.15;;;23.00;87.50;;;;;;5093655;28;20178;-91
2023/08/19 07:30:50;;;;;;;42.15;39.03;;;23.10;88.00;;;;;;5093743;28;20230;-89
2023/08/19 07:33:16;;;;;;;55.83;51.87;;;23.10;87.40;;;;;;5093136;28;20186;-90
2023/08/19 07:35:42;;;;;;;63.22;58.72;;;23.20;87.40;;;;;;5094422;28;20194;-90
2023/08/19 07:38:08;;;;;;;63.17;58.65;;;23.30;87.40;;;;;;5093491;28;20199;-91
2023/08/19 07:40:34;;;;;;;39.00;35.83;;;23.40;86.60;;;;;;5094503;28;20185;-90
2023/08/19 07:42:59;;;;;;;40.05;36.95;;;23.50;86.10;;;;;;5093398;28;20182;-91
2023/08/19 07:45:25;;;;;;;59.22;55.03;;;23.60;86.10;;;;;;5094178;28;20186;-91
2023/08/19 07:47:51;;;;;;;59.22;54.80;;;23.70;85.90;;;;;;5094446;28;20182;-91
2023/08/19 07:50:16;;;;;;;62.83;57.88;;;23.80;85.50;;;;;;5094013;28;20171;-91
2023/08/19 07:52:42;;;;;;;37.60;34.92;;;23.90;85.10;;;;;;5092766;28;20189;-91
2023/08/19 07:55:08;;;;;;;38.78;35.35;;;24.00;84.60;;;;;;5092654;28;20256;-91
2023/08/19 07:57:33;;;;;;;41.70;38.45;;;24.10;83.80;;;;;;5094116;28;20549;-90
2023/08/19 07:59:59;;;;;;;37.63;34.73;;;24.10;83.60;;;;;;5092811;28;20753;-91
2023/08/19 08:02:25;;;;;;;40.13;36.58;;;24.20;83.70;;;;;;5093875;28;20178;-92
2023/08/19 08:04:50;;;;;;;37.65;34.65;;;24.20;83.60;;;;;;5093666;28;20172;-91
2023/08/19 08:07:16;;;;;;;39.50;36.22;;;24.20;83.20;;;;;;5093950;28;20596;-91
2023/08/19 08:09:45;;;;;;;39.75;36.63;;;24.40;83.30;;;;;;5093622;28;20175;-91
2023/08/19 08:12:11;;;;;;;55.42;51.33;;;24.50;82.90;;;;;;5093645;28;20189;-91
2023/08/19 08:14:36;;;;;;;56.78;52.70;;;24.60;82.50;;;;;;5093561;28;20729;-91
2023/08/19 08:17:02;;;;;;;42.97;39.55;;;24.70;82.30;;;;;;5092827;28;20534;-91
2023/08/19 08:19:28;;;;;;;36.00;32.85;;;24.90;82.10;;;;;;5093457;28;20666;-91
2023/08/19 08:21:54;;;;;;;35.00;32.20;;;24.90;80.60;;;;;;5092320;28;20182;-91
2023/08/19 08:24:20;;;;;;;35.00;32.40;;;25.00;80.20;;;;;;5092146;28;20195;-91
2023/08/19 08:26:46;;;;;;;35.17;32.38;;;25.10;80.30;;;;;;5093553;28;20170;-91
2023/08/19 08:29:12;;;;;;;37.13;34.28;;;25.10;79.90;;;;;;5092417;28;20523;-91
2023/08/19 08:31:37;;;;;;;37.20;34.40;;;25.20;80.00;;;;;;5093052;28;20178;-91
2023/08/19 08:34:04;;;;;;;37.28;34.10;;;25.20;79.30;;;;;;5093728;28;20204;-91
2023/08/19 08:36:29;;;;;;;38.42;35.15;;;25.20;79.20;;;;;;5093443;28;20266;-92
2023/08/19 08:38:55;;;;;;;51.58;47.63;;;25.20;79.50;;;;;;5093214;28;20290;-92
2023/08/19 08:41:21;;;;;;;55.50;51.10;;;25.20;79.70;;;;;;5093031;28;20253;-91
2023/08/19 08:43:50;;;;;;;58.47;54.17;;;25.30;79.40;;;;;;5093656;28;20174;-92
2023/08/19 08:46:19;;;;;;;32.80;30.40;;;25.50;78.60;;;;;;5091703;28;20229;-91
2023/08/19 08:48:45;;;;;;;34.67;31.88;;;25.70;78.40;;;;;;5091998;28;20656;-91
2023/08/19 08:51:14;;;;;;;35.40;32.55;;;25.70;77.80;;;;;;5092050;28;20179;-91
2023/08/19 08:53:39;;;;;;;38.40;35.40;;;25.70;78.00;;;;;;5093315;28;20194;-91
2023/08/19 08:56:06;;;;;;;37.65;34.30;;;25.70;77.80;;;;;;5093232;28;20253;-90
2023/08/19 08:58:31;;;;;;;38.03;34.90;;;25.70;77.60;;;;;;5093270;28;20220;-91
2023/08/19 09:00:58;;;;;;;35.17;32.47;;;25.70;77.90;;;;;;5092450;28;20269;-90
2023/08/19 09:03:30;;;;;;;35.35;32.22;;;25.70;78.30;;;;;;5094198;28;20167;-92
2023/08/19 09:06:01;;;;;;;38.53;34.55;;;25.80;77.80;;;;;;5092828;28;20186;-92
2023/08/19 09:08:41;;;;;;;37.33;34.20;;;25.70;77.10;;;;;;5092982;28;20546;-91
2023/08/19 09:11:13;;;;;;;37.58;34.58;;;25.70;77.40;;;;;;5093768;28;20177;-92
2023/08/19 09:13:41;;;;;;;40.63;32.83;;;25.70;77.90;;;;;;5092705;28;20227;-92
2023/08/19 09:16:10;;;;;;;35.67;32.55;;;25.70;78.00;;;;;;5094118;28;20273;-92
2023/08/19 09:18:37;;;;;;;35.13;32.42;;;25.70;78.10;;;;;;5092429;28;20220;-92
2023/08/19 09:21:02;;;;;;;35.03;31.90;;;26.00;78.90;;;;;;5092397;28;20236;-92
2023/08/19 09:23:31;;;;;;;34.57;31.17;;;26.20;78.60;;;;;;5093256;28;20215;-92
2023/08/19 09:25:58;;;;;;;33.60;30.80;;;26.40;77.00;;;;;;5092449;28;20252;-92
2023/08/19 09:28:24;;;;;;;31.90;29.33;;;26.50;77.80;;;;;;5092834;28;20190;-92
2023/08/19 09:30:49;;;;;;;33.05;30.38;;;26.60;76.10;;;;;;5092304;28;20171;-92
2023/08/19 09:33:22;;;;;;;32.20;29.60;;;26.70;76.50;;;;;;5092280;28;20555;-92
2023/08/19 09:35:56;;;;;;;34.30;31.60;;;26.80;75.80;;;;;;5092564;28;20255;-92
2023/08/19 09:38:24;;;;;;;33.03;30.45;;;26.90;75.30;;;;;;5093323;28;20202;-92
2023/08/19 09:41:02;;;;;;;32.38;29.77;;;26.90;74.10;;;;;;5094595;28;20171;-92
2023/08/19 09:43:28;;;;;;;33.28;30.60;;;27.00;74.60;;;;;;5096139;28;20200;-92
2023/08/19 09:45:57;;;;;;;33.20;30.40;;;27.20;74.90;;;;;;5096044;28;20199;-92
2023/08/19 09:48:23;;;;;;;34.83;31.15;;;27.20;74.50;;;;;;5096201;28;20738;-91
2023/08/19 09:50:49;;;;;;;36.70;33.85;;;27.30;73.00;;;;;;5095964;28;20178;-92
2023/08/19 09:53:16;;;;;;;36.38;33.53;;;27.30;73.70;;;;;;5096029;28;20239;-92
2023/08/19 09:55:47;;;;;;;36.22;33.33;;;27.40;74.40;;;;;;5095834;28;20720;-92
2023/08/19 09:58:13;;;;;;;35.95;33.15;;;27.50;74.90;;;;;;5095754;28;20301;-92
2023/08/19 10:00:39;;;;;;;36.22;33.47;;;27.50;73.30;;;;;;5095736;28;20254;-92
2023/08/19 10:03:06;;;;;;;35.80;32.58;;;27.60;73.50;;;;;;5095770;28;20178;-92
2023/08/19 10:05:40;;;;;;;35.58;32.80;;;27.70;72.70;;;;;;5095815;28;20200;-92
2023/08/19 10:08:13;;;;;;;34.00;31.20;;;27.70;72.50;;;;;;5096197;28;20538;-91
2023/08/19 10:10:42;;;;;;;33.47;30.98;;;27.90;73.10;;;;;;5095524;28;20163;-92
2023/08/19 10:13:11;;;;;;;33.22;30.55;;;28.00;74.10;;;;;;5095117;28;20592;-92
2023/08/19 10:15:38;;;;;;;51.33;47.63;;;28.20;72.80;;;;;;5096160;28;20218;-91
2023/08/19 10:18:16;;;;;;;54.97;50.80;;;28.20;73.00;;;;;;5095669;28;20170;-92
2023/08/19 10:20:45;;;;;;;35.03;32.22;;;28.20;71.90;;;;;;5095262;28;20166;-92
2023/08/19 10:23:12;;;;;;;34.00;31.33;;;28.20;72.60;;;;;;5095299;28;20183;-92
2023/08/19 10:25:40;;;;;;;33.05;30.40;;;28.20;71.50;;;;;;5095601;28;20198;-88
2023/08/19 10:28:09;;;;;;;34.08;31.55;;;28.20;72.60;;;;;;5094606;28;20183;-89
2023/08/19 10:30:35;;;;;;;35.15;31.85;;;28.30;71.50;;;;;;5095727;28;20312;-90
2023/08/19 10:33:04;;;;;;;43.30;32.95;;;28.60;71.80;;;;;;5094827;28;20215;-89
2023/08/19 10:36:02;;;;;;;35.50;32.15;;;28.70;72.00;;;;;;5094701;28;20286;-89
2023/08/19 10:38:43;;;;;;;32.30;29.30;;;28.90;71.50;;;;;;5095377;28;20194;-89
2023/08/19 10:41:30;;;;;;;32.75;30.02;;;29.30;71.90;;;;;;5094087;28;20235;-88
2023/08/19 10:43:56;;;;;;;34.35;31.55;;;29.20;67.90;;;;;;5095559;28;20189;-88
2023/08/19 10:46:33;;;;;;;32.92;30.42;;;29.00;69.30;;;;;;5094124;28;20191;-88
2023/08/19 10:48:59;;;;;;;32.38;29.88;;;28.90;70.20;;;;;;5095794;28;20147;-88
2023/08/19 10:52:00;;;;;;;32.75;30.15;;;28.90;69.90;;;;;;5093266;28;20599;-88
2023/08/19 10:54:38;;;;;;;31.55;28.92;;;28.80;69.90;;;;;;5093923;28;20198;-88
2023/08/19 10:57:14;;;;;;;32.17;29.67;;;28.80;69.10;;;;;;5093961;28;20529;-88
2023/08/19 10:59:42;;;;;;;32.75;30.13;;;28.90;69.50;;;;;;5093935;28;20195;-88
2023/08/19 11:02:09;;;;;;;32.13;29.45;;;28.70;69.20;;;;;;5093724;28;20178;-88
2023/08/19 11:04:38;;;;;;;32.28;29.67;;;28.60;68.90;;;;;;5095102;28;20692;-88
2023/08/19 11:07:06;;;;;;;33.08;30.38;;;28.50;69.50;;;;;;5095035;28;20182;-88
2023/08/19 11:09:32;;;;;;;31.83;29.42;;;28.40;70.20;;;;;;5095068;28;20174;-88
2023/08/19 11:11:58;;;;;;;30.75;28.08;;;28.50;71.60;;;;;;5095099;28;20176;-88
2023/08/19 11:14:24;;;;;;;30.83;28.20;;;28.50;71.60;;;;;;5093831;28;20569;-88
2023/08/19 11:16:50;;;;;;;29.88;27.42;;;28.40;70.80;;;;;;5094899;28;20253;-88
2023/08/19 11:19:17;;;;;;;31.42;28.83;;;28.40;70.90;;;;;;5094850;28;20201;-88
2023/08/19 11:21:43;;;;;;;31.40;29.00;;;28.40;71.70;;;;;;5093341;28;20520;-88
2023/08/19 11:24:09;;;;;;;31.63;29.23;;;28.40;71.20;;;;;;5093280;28;20566;-89
2023/08/19 11:26:39;;;;;;;32.58;29.88;;;28.50;72.00;;;;;;5093365;28;20171;-89
2023/08/19 11:29:05;;;;;;;32.20;29.70;;;28.40;71.60;;;;;;5093354;28;20236;-89
2023/08/19 11:31:31;;;;;;;31.30;28.70;;;28.40;71.20;;;;;;5093550;28;20265;-89
2023/08/19 11:33:57;;;;;;;30.67;28.38;;;28.40;71.50;;;;;;5093181;28;20213;-89
2023/08/19 11:36:26;;;;;;;32.13;28.75;;;28.40;71.50;;;;;;5093210;28;20210;-89
2023/08/19 11:39:05;;;;;;;31.80;29.20;;;28.30;72.10;;;;;;5092990;28;20209;-89
2023/08/19 11:41:31;;;;;;;31.35;28.98;;;28.30;72.20;;;;;;5094239;28;20173;-89
2023/08/19 11:43:58;;;;;;;31.23;28.45;;;28.20;72.10;;;;;;5094500;28;20210;-89
2023/08/19 11:46:35;;;;;;;32.30;29.42;;;28.20;72.90;;;;;;5092749;28;20757;-88
2023/08/19 11:49:08;;;;;;;33.05;29.92;;;28.10;72.40;;;;;;5094132;28;20270;-87
2023/08/19 11:51:38;;;;;;;31.35;29.05;;;28.00;72.70;;;;;;5094015;28;20223;-88
2023/08/19 11:54:05;;;;;;;32.15;29.48;;;27.90;73.10;;;;;;5093826;28;20175;-88
2023/08/19 11:57:06;;;;;;;31.13;28.48;;;27.80;73.30;;;;;;5092790;28;20209;-88
2023/08/19 11:59:33;;;;;;;31.65;29.15;;;27.80;73.40;;;;;;5070893;28;20227;-88
2023/08/19 12:02:06;;;;;;;31.65;29.02;;;27.80;74.00;;;;;;5092500;28;20175;-88
2023/08/19 12:04:34;;;;;;;32.08;29.02;;;27.80;74.20;;;;;;5093434;28;20589;-88
2023/08/19 12:07:04;;;;;;;30.83;28.33;;;27.80;74.60;;;;;;5094271;28;20177;-87
2023/08/19 12:09:36;;;;;;;30.23;27.63;;;27.70;74.00;;;;;;5092700;28;20205;-88
2023/08/19 12:12:07;;;;;;;31.35;28.75;;;27.70;74.10;;;;;;5093883;28;20174;-88
2023/08/19 12:14:32;;;;;;;30.75;28.35;;;27.70;74.30;;;;;;5092329;28;20190;-88
2023/08/19 12:16:58;;;;;;;31.88;29.33;;;27.70;74.30;;;;;;5092339;28;20676;-88
2023/08/19 12:19:23;;;;;;;32.15;29.75;;;27.60;74.60;;;;;;5093710;28;20202;-88
2023/08/19 12:21:49;;;;;;;31.88;29.02;;;27.60;75.00;;;;;;5093643;28;20183;-88
2023/08/19 12:24:14;;;;;;;31.23;28.65;;;27.60;74.70;;;;;;5093372;28;20221;-88
2023/08/19 12:26:40;;;;;;;31.52;28.90;;;27.60;75.20;;;;;;5093696;28;20174;-89